sensor_id;sensor_type;location;lat;lon;timestamp;P1;durP1;ratioP1;P2;durP2;ratioP2
1825;SDS011;912;48.130;11.348;2022-07-29T00:00:06;1.58;;;0.90;;
1825;SDS011;912;48.130;11.348;2022-07-29T00:02:48;0.90;;;0.60;;
1825;SDS011;912;48.130;11.348;2022-07-29T00:05:30;0.80;;;0.60;;
1825;SDS011;912;48.130;11.348;2022-07-29T00:08:13;0.70;;;0.70;;
1825;SDS011;912;48.130;11.348;2022-07-29T00:10:55;1.33;;;0.90;;
1825;SDS011;912;48.130;11.348;2022-07-29T00:13:39;0.90;;;0.62;;
1825;SDS011;912;48.130;11.348;2022-07-29T00:16:21;0.80;;;0.80;;
1825;SDS011;912;48.130;11.348;2022-07-29T00:19:03;0.85;;;0.70;;
1825;SDS011;912;48.130;11.348;2022-07-29T00:21:44;0.80;;;0.80;;
1825;SDS011;912;48.130;11.348;2022-07-29T00:24:26;0.90;;;0.70;;
1825;SDS011;912;48.130;11.348;2022-07-29T00:27:08;1.10;;;0.53;;
1825;SDS011;912;48.130;11.348;2022-07-29T00:29:50;1.10;;;0.60;;
1825;SDS011;912;48.130;11.348;2022-07-29T00:32:32;0.70;;;0.70;;
1825;SDS011;912;48.130;11.348;2022-07-29T00:35:49;0.70;;;0.60;;
1825;SDS011;912;48.130;11.348;2022-07-29T00:38:31;1.10;;;0.60;;
1825;SDS011;912;48.130;11.348;2022-07-29T00:41:13;0.70;;;0.60;;
1825;SDS011;912;48.130;11.348;2022-07-29T00:43:54;1.80;;;0.60;;
1825;SDS011;912;48.130;11.348;2022-07-29T00:46:36;1.42;;;1.20;;
1825;SDS011;912;48.130;11.348;2022-07-29T00:49:18;2.60;;;1.00;;
1825;SDS011;912;48.130;11.348;2022-07-29T00:52:01;1.50;;;0.60;;
1825;SDS011;912;48.130;11.348;2022-07-29T00:54:43;1.10;;;1.00;;
1825;SDS011;912;48.130;11.348;2022-07-29T00:57:24;0.80;;;0.80;;
1825;SDS011;912;48.130;11.348;2022-07-29T01:00:07;0.80;;;0.80;;
1825;SDS011;912;48.130;11.348;2022-07-29T01:02:53;1.00;;;0.60;;
1825;SDS011;912;48.130;11.348;2022-07-29T01:08:10;0.65;;;0.45;;
1825;SDS011;912;48.130;11.348;2022-07-29T01:10:51;1.20;;;0.50;;
1825;SDS011;912;48.130;11.348;2022-07-29T01:13:33;0.40;;;0.30;;
1825;SDS011;912;48.130;11.348;2022-07-29T01:16:21;1.30;;;0.70;;
1825;SDS011;912;48.130;11.348;2022-07-29T01:19:07;1.80;;;0.70;;
1825;SDS011;912;48.130;11.348;2022-07-29T01:21:50;0.80;;;0.60;;
1825;SDS011;912;48.130;11.348;2022-07-29T01:28:01;1.20;;;1.10;;
1825;SDS011;912;48.130;11.348;2022-07-29T01:30:47;0.70;;;0.70;;
1825;SDS011;912;48.130;11.348;2022-07-29T01:35:49;1.40;;;0.50;;
1825;SDS011;912;48.130;11.348;2022-07-29T01:38:31;0.80;;;0.40;;
1825;SDS011;912;48.130;11.348;2022-07-29T01:41:14;0.82;;;0.80;;
1825;SDS011;912;48.130;11.348;2022-07-29T01:43:57;0.93;;;0.85;;
1825;SDS011;912;48.130;11.348;2022-07-29T01:46:40;1.40;;;0.70;;
1825;SDS011;912;48.130;11.348;2022-07-29T01:49:23;1.35;;;0.68;;
1825;SDS011;912;48.130;11.348;2022-07-29T01:52:15;1.00;;;0.70;;
1825;SDS011;912;48.130;11.348;2022-07-29T01:54:57;0.70;;;0.60;;
1825;SDS011;912;48.130;11.348;2022-07-29T01:57:38;1.20;;;0.77;;
1825;SDS011;912;48.130;11.348;2022-07-29T02:00:19;0.80;;;0.60;;
1825;SDS011;912;48.130;11.348;2022-07-29T02:03:03;0.43;;;0.40;;
1825;SDS011;912;48.130;11.348;2022-07-29T02:05:43;0.62;;;0.60;;
1825;SDS011;912;48.130;11.348;2022-07-29T02:08:24;0.80;;;0.70;;
1825;SDS011;912;48.130;11.348;2022-07-29T02:11:06;1.00;;;0.70;;
1825;SDS011;912;48.130;11.348;2022-07-29T02:13:48;0.60;;;0.60;;
1825;SDS011;912;48.130;11.348;2022-07-29T02:19:04;1.92;;;1.20;;
1825;SDS011;912;48.130;11.348;2022-07-29T02:21:48;0.52;;;0.50;;
1825;SDS011;912;48.130;11.348;2022-07-29T02:24:30;2.28;;;0.70;;
1825;SDS011;912;48.130;11.348;2022-07-29T02:27:12;3.80;;;0.68;;
1825;SDS011;912;48.130;11.348;2022-07-29T02:29:54;0.50;;;0.50;;
1825;SDS011;912;48.130;11.348;2022-07-29T02:32:36;1.00;;;1.00;;
1825;SDS011;912;48.130;11.348;2022-07-29T02:35:49;0.70;;;0.50;;
1825;SDS011;912;48.130;11.348;2022-07-29T02:38:31;2.70;;;0.70;;
1825;SDS011;912;48.130;11.348;2022-07-29T02:41:20;1.00;;;0.53;;
1825;SDS011;912;48.130;11.348;2022-07-29T02:44:03;0.90;;;0.90;;
1825;SDS011;912;48.130;11.348;2022-07-29T02:46:46;0.68;;;0.68;;
1825;SDS011;912;48.130;11.348;2022-07-29T02:49:33;0.68;;;0.60;;
1825;SDS011;912;48.130;11.348;2022-07-29T02:52:21;0.70;;;0.70;;
1825;SDS011;912;48.130;11.348;2022-07-29T02:58:27;0.90;;;0.90;;
1825;SDS011;912;48.130;11.348;2022-07-29T03:01:11;0.60;;;0.50;;
1825;SDS011;912;48.130;11.348;2022-07-29T03:06:26;0.73;;;0.50;;
1825;SDS011;912;48.130;11.348;2022-07-29T03:09:08;0.88;;;0.80;;
1825;SDS011;912;48.130;11.348;2022-07-29T03:11:49;0.95;;;0.60;;
1825;SDS011;912;48.130;11.348;2022-07-29T03:14:31;0.70;;;0.60;;
1825;SDS011;912;48.130;11.348;2022-07-29T03:17:13;0.62;;;0.55;;
1825;SDS011;912;48.130;11.348;2022-07-29T03:19:54;0.80;;;0.60;;
1825;SDS011;912;48.130;11.348;2022-07-29T03:22:39;0.68;;;0.60;;
1825;SDS011;912;48.130;11.348;2022-07-29T03:25:23;1.37;;;0.50;;
1825;SDS011;912;48.130;11.348;2022-07-29T03:28:04;4.30;;;0.93;;
1825;SDS011;912;48.130;11.348;2022-07-29T03:30:46;0.80;;;0.60;;
1825;SDS011;912;48.130;11.348;2022-07-29T03:35:50;1.00;;;0.80;;
1825;SDS011;912;48.130;11.348;2022-07-29T03:38:32;3.40;;;0.80;;
1825;SDS011;912;48.130;11.348;2022-07-29T03:41:13;0.50;;;0.50;;
1825;SDS011;912;48.130;11.348;2022-07-29T03:43:55;0.70;;;0.50;;
1825;SDS011;912;48.130;11.348;2022-07-29T03:46:36;0.50;;;0.50;;
1825;SDS011;912;48.130;11.348;2022-07-29T03:49:18;0.50;;;0.40;;
1825;SDS011;912;48.130;11.348;2022-07-29T03:52:00;1.37;;;0.73;;
1825;SDS011;912;48.130;11.348;2022-07-29T03:56:22;0.80;;;0.62;;
1825;SDS011;912;48.130;11.348;2022-07-29T03:59:04;0.68;;;0.40;;
1825;SDS011;912;48.130;11.348;2022-07-29T04:01:46;0.50;;;0.40;;
1825;SDS011;912;48.130;11.348;2022-07-29T04:04:27;0.90;;;0.50;;
1825;SDS011;912;48.130;11.348;2022-07-29T04:07:12;1.02;;;0.52;;
1825;SDS011;912;48.130;11.348;2022-07-29T04:09:53;1.40;;;0.65;;
1825;SDS011;912;48.130;11.348;2022-07-29T04:12:34;0.55;;;0.40;;
1825;SDS011;912;48.130;11.348;2022-07-29T04:15:17;1.60;;;0.50;;
1825;SDS011;912;48.130;11.348;2022-07-29T04:18:02;0.60;;;0.60;;
1825;SDS011;912;48.130;11.348;2022-07-29T04:20:43;1.30;;;0.70;;
1825;SDS011;912;48.130;11.348;2022-07-29T04:25:59;1.10;;;0.70;;
1825;SDS011;912;48.130;11.348;2022-07-29T04:28:41;0.60;;;0.60;;
1825;SDS011;912;48.130;11.348;2022-07-29T04:31:23;1.17;;;0.90;;
1825;SDS011;912;48.130;11.348;2022-07-29T04:35:55;0.90;;;0.62;;
1825;SDS011;912;48.130;11.348;2022-07-29T04:38:37;1.40;;;0.80;;
1825;SDS011;912;48.130;11.348;2022-07-29T04:41:18;0.75;;;0.70;;
1825;SDS011;912;48.130;11.348;2022-07-29T04:44:01;0.70;;;0.50;;
1825;SDS011;912;48.130;11.348;2022-07-29T04:46:43;0.95;;;0.80;;
1825;SDS011;912;48.130;11.348;2022-07-29T04:49:25;0.60;;;0.50;;
1825;SDS011;912;48.130;11.348;2022-07-29T04:52:06;1.75;;;0.73;;
1825;SDS011;912;48.130;11.348;2022-07-29T04:54:48;2.87;;;0.88;;
1825;SDS011;912;48.130;11.348;2022-07-29T04:57:30;1.50;;;1.10;;
1825;SDS011;912;48.130;11.348;2022-07-29T05:00:12;1.27;;;0.70;;
1825;SDS011;912;48.130;11.348;2022-07-29T05:02:54;0.68;;;0.50;;
1825;SDS011;912;48.130;11.348;2022-07-29T05:05:38;0.57;;;0.50;;
1825;SDS011;912;48.130;11.348;2022-07-29T05:08:20;1.00;;;0.70;;
1825;SDS011;912;48.130;11.348;2022-07-29T05:11:03;0.60;;;0.60;;
1825;SDS011;912;48.130;11.348;2022-07-29T05:13:44;1.05;;;0.70;;
1825;SDS011;912;48.130;11.348;2022-07-29T05:16:26;1.20;;;0.60;;
1825;SDS011;912;48.130;11.348;2022-07-29T05:19:11;0.60;;;0.30;;
1825;SDS011;912;48.130;11.348;2022-07-29T05:21:52;0.90;;;0.80;;
1825;SDS011;912;48.130;11.348;2022-07-29T05:24:34;0.80;;;0.40;;
1825;SDS011;912;48.130;11.348;2022-07-29T05:27:16;0.90;;;0.60;;
1825;SDS011;912;48.130;11.348;2022-07-29T05:29:58;3.00;;;0.70;;
1825;SDS011;912;48.130;11.348;2022-07-29T05:32:45;0.60;;;0.40;;
1825;SDS011;912;48.130;11.348;2022-07-29T05:35:49;0.80;;;0.40;;
1825;SDS011;912;48.130;11.348;2022-07-29T05:38:31;0.60;;;0.50;;
1825;SDS011;912;48.130;11.348;2022-07-29T05:41:12;0.60;;;0.50;;
1825;SDS011;912;48.130;11.348;2022-07-29T05:46:28;1.00;;;0.70;;
1825;SDS011;912;48.130;11.348;2022-07-29T05:49:10;1.48;;;0.52;;
1825;SDS011;912;48.130;11.348;2022-07-29T05:51:52;1.15;;;0.98;;
1825;SDS011;912;48.130;11.348;2022-07-29T05:54:37;0.80;;;0.70;;
1825;SDS011;912;48.130;11.348;2022-07-29T05:57:25;1.00;;;0.40;;
1825;SDS011;912;48.130;11.348;2022-07-29T06:00:07;0.60;;;0.40;;
1825;SDS011;912;48.130;11.348;2022-07-29T06:02:56;1.50;;;0.90;;
1825;SDS011;912;48.130;11.348;2022-07-29T06:05:40;1.10;;;0.70;;
1825;SDS011;912;48.130;11.348;2022-07-29T06:08:22;1.50;;;0.90;;
1825;SDS011;912;48.130;11.348;2022-07-29T06:11:05;0.82;;;0.60;;
1825;SDS011;912;48.130;11.348;2022-07-29T06:13:49;0.85;;;0.70;;
1825;SDS011;912;48.130;11.348;2022-07-29T06:18:56;1.33;;;1.00;;
1825;SDS011;912;48.130;11.348;2022-07-29T06:21:43;0.80;;;0.50;;
1825;SDS011;912;48.130;11.348;2022-07-29T06:24:30;0.50;;;0.50;;
1825;SDS011;912;48.130;11.348;2022-07-29T06:27:18;0.70;;;0.40;;
1825;SDS011;912;48.130;11.348;2022-07-29T06:30:02;0.70;;;0.70;;
1825;SDS011;912;48.130;11.348;2022-07-29T06:32:50;0.50;;;0.35;;
1825;SDS011;912;48.130;11.348;2022-07-29T06:35:51;1.40;;;0.60;;
1825;SDS011;912;48.130;11.348;2022-07-29T06:38:39;0.70;;;0.60;;
1825;SDS011;912;48.130;11.348;2022-07-29T06:44:01;0.77;;;0.62;;
1825;SDS011;912;48.130;11.348;2022-07-29T06:46:43;0.73;;;0.73;;
1825;SDS011;912;48.130;11.348;2022-07-29T06:49:31;1.12;;;0.60;;
1825;SDS011;912;48.130;11.348;2022-07-29T06:52:18;0.70;;;0.50;;
1825;SDS011;912;48.130;11.348;2022-07-29T06:55:00;1.20;;;0.70;;
1825;SDS011;912;48.130;11.348;2022-07-29T06:57:42;0.93;;;0.50;;
1825;SDS011;912;48.130;11.348;2022-07-29T07:00:24;1.50;;;0.70;;
1825;SDS011;912;48.130;11.348;2022-07-29T07:03:05;1.05;;;0.60;;
1825;SDS011;912;48.130;11.348;2022-07-29T07:05:48;1.00;;;0.60;;
1825;SDS011;912;48.130;11.348;2022-07-29T07:08:30;0.50;;;0.50;;
1825;SDS011;912;48.130;11.348;2022-07-29T07:11:11;0.60;;;0.60;;
1825;SDS011;912;48.130;11.348;2022-07-29T07:13:53;1.00;;;0.50;;
1825;SDS011;912;48.130;11.348;2022-07-29T07:16:35;1.30;;;0.77;;
1825;SDS011;912;48.130;11.348;2022-07-29T07:19:19;1.35;;;0.90;;
1825;SDS011;912;48.130;11.348;2022-07-29T07:22:04;1.00;;;0.90;;
1825;SDS011;912;48.130;11.348;2022-07-29T07:24:56;0.90;;;0.80;;
1825;SDS011;912;48.130;11.348;2022-07-29T07:27:38;1.30;;;0.90;;
1825;SDS011;912;48.130;11.348;2022-07-29T07:30:23;0.80;;;0.50;;
1825;SDS011;912;48.130;11.348;2022-07-29T07:35:55;0.70;;;0.50;;
1825;SDS011;912;48.130;11.348;2022-07-29T07:38:40;1.00;;;0.60;;
1825;SDS011;912;48.130;11.348;2022-07-29T07:41:22;2.20;;;0.70;;
1825;SDS011;912;48.130;11.348;2022-07-29T07:44:09;0.70;;;0.50;;
1825;SDS011;912;48.130;11.348;2022-07-29T07:46:57;0.70;;;0.60;;
1825;SDS011;912;48.130;11.348;2022-07-29T07:49:39;1.10;;;0.77;;
1825;SDS011;912;48.130;11.348;2022-07-29T07:52:23;0.70;;;0.50;;
1825;SDS011;912;48.130;11.348;2022-07-29T07:55:10;1.30;;;0.60;;
1825;SDS011;912;48.130;11.348;2022-07-29T07:57:54;0.70;;;0.70;;
1825;SDS011;912;48.130;11.348;2022-07-29T08:03:10;0.75;;;0.65;;
1825;SDS011;912;48.130;11.348;2022-07-29T08:05:52;1.00;;;0.90;;
1825;SDS011;912;48.130;11.348;2022-07-29T08:08:34;0.82;;;0.80;;
1825;SDS011;912;48.130;11.348;2022-07-29T08:13:11;0.65;;;0.65;;
1825;SDS011;912;48.130;11.348;2022-07-29T08:15:53;1.50;;;0.52;;
1825;SDS011;912;48.130;11.348;2022-07-29T08:18:38;0.85;;;0.75;;
1825;SDS011;912;48.130;11.348;2022-07-29T08:21:24;0.90;;;0.80;;
1825;SDS011;912;48.130;11.348;2022-07-29T08:24:06;1.02;;;0.80;;
1825;SDS011;912;48.130;11.348;2022-07-29T08:29:31;1.00;;;0.90;;
1825;SDS011;912;48.130;11.348;2022-07-29T08:32:12;1.37;;;0.80;;
1825;SDS011;912;48.130;11.348;2022-07-29T08:35:50;1.30;;;0.90;;
1825;SDS011;912;48.130;11.348;2022-07-29T08:38:32;0.70;;;0.60;;
1825;SDS011;912;48.130;11.348;2022-07-29T08:41:15;2.62;;;1.40;;
1825;SDS011;912;48.130;11.348;2022-07-29T08:43:57;0.80;;;0.80;;
1825;SDS011;912;48.130;11.348;2022-07-29T08:46:47;2.70;;;0.80;;
1825;SDS011;912;48.130;11.348;2022-07-29T08:49:28;1.15;;;0.90;;
1825;SDS011;912;48.130;11.348;2022-07-29T08:52:10;0.88;;;0.88;;
1825;SDS011;912;48.130;11.348;2022-07-29T08:54:52;1.20;;;0.90;;
1825;SDS011;912;48.130;11.348;2022-07-29T08:57:34;1.00;;;0.90;;
1825;SDS011;912;48.130;11.348;2022-07-29T09:00:15;1.30;;;1.00;;
1825;SDS011;912;48.130;11.348;2022-07-29T09:02:57;0.80;;;0.70;;
1825;SDS011;912;48.130;11.348;2022-07-29T09:05:40;3.92;;;1.08;;
1825;SDS011;912;48.130;11.348;2022-07-29T09:08:21;1.05;;;0.85;;
1825;SDS011;912;48.130;11.348;2022-07-29T09:11:06;1.05;;;0.77;;
1825;SDS011;912;48.130;11.348;2022-07-29T09:13:48;1.10;;;0.70;;
1825;SDS011;912;48.130;11.348;2022-07-29T09:19:37;1.10;;;1.00;;
1825;SDS011;912;48.130;11.348;2022-07-29T09:22:28;1.20;;;0.90;;
1825;SDS011;912;48.130;11.348;2022-07-29T09:25:00;1.10;;;1.00;;
1825;SDS011;912;48.130;11.348;2022-07-29T09:27:42;1.33;;;1.00;;
1825;SDS011;912;48.130;11.348;2022-07-29T09:30:23;0.90;;;0.90;;
1825;SDS011;912;48.130;11.348;2022-07-29T09:36:07;1.30;;;1.10;;
1825;SDS011;912;48.130;11.348;2022-07-29T09:38:56;1.15;;;1.05;;
1825;SDS011;912;48.130;11.348;2022-07-29T09:44:03;1.20;;;1.10;;
1825;SDS011;912;48.130;11.348;2022-07-29T09:52:41;1.10;;;0.90;;
1825;SDS011;912;48.130;11.348;2022-07-29T09:55:16;1.20;;;1.10;;
1825;SDS011;912;48.130;11.348;2022-07-29T10:00:55;4.10;;;1.20;;
1825;SDS011;912;48.130;11.348;2022-07-29T10:03:50;1.25;;;1.00;;
1825;SDS011;912;48.130;11.348;2022-07-29T10:06:33;1.27;;;1.17;;
1825;SDS011;912;48.130;11.348;2022-07-29T10:09:15;1.90;;;1.00;;
1825;SDS011;912;48.130;11.348;2022-07-29T10:12:03;1.52;;;1.40;;
1825;SDS011;912;48.130;11.348;2022-07-29T10:14:46;1.90;;;1.33;;
1825;SDS011;912;48.130;11.348;2022-07-29T10:17:28;1.40;;;1.15;;
1825;SDS011;912;48.130;11.348;2022-07-29T10:20:10;1.33;;;1.23;;
1825;SDS011;912;48.130;11.348;2022-07-29T10:22:57;2.00;;;1.20;;
1825;SDS011;912;48.130;11.348;2022-07-29T10:25:45;3.75;;;1.17;;
1825;SDS011;912;48.130;11.348;2022-07-29T10:28:27;1.70;;;1.30;;
1825;SDS011;912;48.130;11.348;2022-07-29T10:31:11;3.60;;;1.00;;
1825;SDS011;912;48.130;11.348;2022-07-29T10:35:58;2.47;;;1.40;;
1825;SDS011;912;48.130;11.348;2022-07-29T10:38:42;1.50;;;1.40;;
1825;SDS011;912;48.130;11.348;2022-07-29T10:44:32;1.58;;;1.48;;
1825;SDS011;912;48.130;11.348;2022-07-29T10:47:19;2.47;;;1.80;;
1825;SDS011;912;48.130;11.348;2022-07-29T10:52:53;2.60;;;1.75;;
1825;SDS011;912;48.130;11.348;2022-07-29T10:55:41;1.30;;;1.20;;
1825;SDS011;912;48.130;11.348;2022-07-29T10:58:42;2.90;;;1.40;;
1825;SDS011;912;48.130;11.348;2022-07-29T11:01:29;1.40;;;1.30;;
1825;SDS011;912;48.130;11.348;2022-07-29T11:04:10;2.30;;;1.10;;
1825;SDS011;912;48.130;11.348;2022-07-29T11:13:04;1.40;;;1.30;;
1825;SDS011;912;48.130;11.348;2022-07-29T11:15:52;1.60;;;1.20;;
1825;SDS011;912;48.130;11.348;2022-07-29T11:18:32;1.50;;;1.40;;
1825;SDS011;912;48.130;11.348;2022-07-29T11:24:19;1.50;;;1.20;;
1825;SDS011;912;48.130;11.348;2022-07-29T11:27:11;2.15;;;1.35;;
1825;SDS011;912;48.130;11.348;2022-07-29T11:29:55;1.80;;;1.30;;
1825;SDS011;912;48.130;11.348;2022-07-29T11:32:42;1.62;;;1.42;;
1825;SDS011;912;48.130;11.348;2022-07-29T11:45:21;1.30;;;1.20;;
1825;SDS011;912;48.130;11.348;2022-07-29T11:48:01;2.30;;;1.40;;
1825;SDS011;912;48.130;11.348;2022-07-29T11:50:43;1.02;;;0.93;;
1825;SDS011;912;48.130;11.348;2022-07-29T11:53:28;2.20;;;1.60;;
1825;SDS011;912;48.130;11.348;2022-07-29T11:59:03;1.60;;;1.10;;
1825;SDS011;912;48.130;11.348;2022-07-29T12:04:47;2.53;;;1.27;;
1825;SDS011;912;48.130;11.348;2022-07-29T12:07:29;1.62;;;1.52;;
1825;SDS011;912;48.130;11.348;2022-07-29T12:10:11;1.85;;;1.30;;
1825;SDS011;912;48.130;11.348;2022-07-29T12:12:53;1.52;;;1.42;;
1825;SDS011;912;48.130;11.348;2022-07-29T12:18:10;1.33;;;0.88;;
1825;SDS011;912;48.130;11.348;2022-07-29T12:20:57;1.58;;;1.00;;
1825;SDS011;912;48.130;11.348;2022-07-29T12:23:37;2.20;;;1.00;;
1825;SDS011;912;48.130;11.348;2022-07-29T12:26:19;3.33;;;1.48;;
1825;SDS011;912;48.130;11.348;2022-07-29T12:29:01;2.60;;;2.00;;
1825;SDS011;912;48.130;11.348;2022-07-29T12:31:43;4.00;;;1.60;;
1825;SDS011;912;48.130;11.348;2022-07-29T12:35:51;1.67;;;1.50;;
1825;SDS011;912;48.130;11.348;2022-07-29T12:38:33;1.30;;;1.20;;
1825;SDS011;912;48.130;11.348;2022-07-29T12:41:14;1.42;;;1.33;;
1825;SDS011;912;48.130;11.348;2022-07-29T12:43:56;1.20;;;1.10;;
1825;SDS011;912;48.130;11.348;2022-07-29T12:46:37;2.22;;;2.03;;
1825;SDS011;912;48.130;11.348;2022-07-29T12:49:21;4.55;;;1.67;;
1825;SDS011;912;48.130;11.348;2022-07-29T12:52:22;4.50;;;1.50;;
1825;SDS011;912;48.130;11.348;2022-07-29T12:54:57;2.90;;;1.70;;
1825;SDS011;912;48.130;11.348;2022-07-29T12:57:45;2.22;;;1.52;;
1825;SDS011;912;48.130;11.348;2022-07-29T13:00:28;1.52;;;1.42;;
1825;SDS011;912;48.130;11.348;2022-07-29T13:03:11;1.40;;;1.20;;
1825;SDS011;912;48.130;11.348;2022-07-29T13:05:53;1.02;;;0.90;;
1825;SDS011;912;48.130;11.348;2022-07-29T13:08:35;1.35;;;1.10;;
1825;SDS011;912;48.130;11.348;2022-07-29T13:14:09;2.03;;;1.70;;
1825;SDS011;912;48.130;11.348;2022-07-29T13:19:48;1.30;;;1.20;;
1825;SDS011;912;48.130;11.348;2022-07-29T13:22:30;1.30;;;1.20;;
1825;SDS011;912;48.130;11.348;2022-07-29T13:25:12;2.28;;;1.20;;
1825;SDS011;912;48.130;11.348;2022-07-29T13:27:55;4.60;;;1.30;;
1825;SDS011;912;48.130;11.348;2022-07-29T13:30:39;1.20;;;1.00;;
1825;SDS011;912;48.130;11.348;2022-07-29T13:35:49;1.60;;;1.00;;
1825;SDS011;912;48.130;11.348;2022-07-29T13:38:31;3.15;;;1.65;;
1825;SDS011;912;48.130;11.348;2022-07-29T13:41:15;1.20;;;1.10;;
1825;SDS011;912;48.130;11.348;2022-07-29T13:43:57;0.90;;;0.90;;
1825;SDS011;912;48.130;11.348;2022-07-29T13:46:39;1.10;;;1.00;;
1825;SDS011;912;48.130;11.348;2022-07-29T13:49:21;4.03;;;0.98;;
1825;SDS011;912;48.130;11.348;2022-07-29T13:52:05;1.50;;;1.40;;
1825;SDS011;912;48.130;11.348;2022-07-29T13:54:47;1.35;;;1.00;;
1825;SDS011;912;48.130;11.348;2022-07-29T13:57:29;1.90;;;1.00;;
1825;SDS011;912;48.130;11.348;2022-07-29T14:00:11;1.00;;;0.90;;
1825;SDS011;912;48.130;11.348;2022-07-29T14:02:56;1.90;;;1.70;;
1825;SDS011;912;48.130;11.348;2022-07-29T14:05:38;1.52;;;1.42;;
1825;SDS011;912;48.130;11.348;2022-07-29T14:08:19;2.20;;;1.30;;
1825;SDS011;912;48.130;11.348;2022-07-29T14:11:01;1.27;;;1.17;;
1825;SDS011;912;48.130;11.348;2022-07-29T14:13:46;2.00;;;1.70;;
1825;SDS011;912;48.130;11.348;2022-07-29T14:16:28;1.52;;;1.35;;
1825;SDS011;912;48.130;11.348;2022-07-29T14:19:09;1.77;;;1.50;;
1825;SDS011;912;48.130;11.348;2022-07-29T14:21:51;1.45;;;1.20;;
1825;SDS011;912;48.130;11.348;2022-07-29T14:24:33;1.00;;;1.00;;
1825;SDS011;912;48.130;11.348;2022-07-29T14:27:14;3.00;;;1.80;;
1825;SDS011;912;48.130;11.348;2022-07-29T14:29:56;1.83;;;1.42;;
1825;SDS011;912;48.130;11.348;2022-07-29T14:32:38;3.60;;;1.42;;
1825;SDS011;912;48.130;11.348;2022-07-29T14:35:53;2.00;;;1.40;;
1825;SDS011;912;48.130;11.348;2022-07-29T14:38:35;1.70;;;1.47;;
1825;SDS011;912;48.130;11.348;2022-07-29T14:41:16;1.10;;;1.00;;
1825;SDS011;912;48.130;11.348;2022-07-29T14:44:01;1.50;;;1.40;;
1825;SDS011;912;48.130;11.348;2022-07-29T14:46:43;1.50;;;1.20;;
1825;SDS011;912;48.130;11.348;2022-07-29T14:49:25;1.65;;;1.05;;
1825;SDS011;912;48.130;11.348;2022-07-29T14:52:06;1.80;;;1.60;;
1825;SDS011;912;48.130;11.348;2022-07-29T14:54:48;1.87;;;1.30;;
1825;SDS011;912;48.130;11.348;2022-07-29T14:57:30;1.52;;;1.20;;
1825;SDS011;912;48.130;11.348;2022-07-29T15:00:12;2.00;;;1.20;;
1825;SDS011;912;48.130;11.348;2022-07-29T15:02:54;1.48;;;1.35;;
1825;SDS011;912;48.130;11.348;2022-07-29T15:05:35;1.90;;;1.30;;
1825;SDS011;912;48.130;11.348;2022-07-29T15:08:17;1.23;;;1.10;;
1825;SDS011;912;48.130;11.348;2022-07-29T15:10:59;2.00;;;1.20;;
1825;SDS011;912;48.130;11.348;2022-07-29T15:16:57;1.45;;;1.20;;
1825;SDS011;912;48.130;11.348;2022-07-29T15:19:39;2.30;;;1.10;;
1825;SDS011;912;48.130;11.348;2022-07-29T15:22:21;1.60;;;1.40;;
1825;SDS011;912;48.130;11.348;2022-07-29T15:25:04;1.70;;;1.17;;
1825;SDS011;912;48.130;11.348;2022-07-29T15:27:46;1.95;;;1.60;;
1825;SDS011;912;48.130;11.348;2022-07-29T15:30:29;2.00;;;1.20;;
1825;SDS011;912;48.130;11.348;2022-07-29T15:35:50;1.40;;;1.30;;
1825;SDS011;912;48.130;11.348;2022-07-29T15:38:32;1.60;;;1.40;;
1825;SDS011;912;48.130;11.348;2022-07-29T15:41:14;1.23;;;1.10;;
1825;SDS011;912;48.130;11.348;2022-07-29T15:43:55;1.60;;;1.23;;
1825;SDS011;912;48.130;11.348;2022-07-29T15:46:37;1.40;;;1.30;;
1825;SDS011;912;48.130;11.348;2022-07-29T15:49:24;2.30;;;2.00;;
1825;SDS011;912;48.130;11.348;2022-07-29T15:52:07;1.87;;;1.27;;
1825;SDS011;912;48.130;11.348;2022-07-29T15:54:51;1.50;;;1.30;;
1825;SDS011;912;48.130;11.348;2022-07-29T15:57:33;1.67;;;1.20;;
1825;SDS011;912;48.130;11.348;2022-07-29T16:02:52;1.50;;;1.40;;
1825;SDS011;912;48.130;11.348;2022-07-29T16:05:33;3.00;;;1.52;;
1825;SDS011;912;48.130;11.348;2022-07-29T16:08:18;1.50;;;1.40;;
1825;SDS011;912;48.130;11.348;2022-07-29T16:13:36;4.68;;;1.60;;
1825;SDS011;912;48.130;11.348;2022-07-29T16:16:17;1.62;;;1.20;;
1825;SDS011;912;48.130;11.348;2022-07-29T16:18:59;1.65;;;1.42;;
1825;SDS011;912;48.130;11.348;2022-07-29T16:21:41;1.60;;;1.50;;
1825;SDS011;912;48.130;11.348;2022-07-29T16:24:23;1.50;;;1.40;;
1825;SDS011;912;48.130;11.348;2022-07-29T16:27:06;1.90;;;1.20;;
1825;SDS011;912;48.130;11.348;2022-07-29T16:29:48;2.47;;;1.70;;
1825;SDS011;912;48.130;11.348;2022-07-29T16:32:30;2.10;;;1.90;;
1825;SDS011;912;48.130;11.348;2022-07-29T16:35:50;2.15;;;1.90;;
1825;SDS011;912;48.130;11.348;2022-07-29T16:38:32;2.00;;;1.48;;
1825;SDS011;912;48.130;11.348;2022-07-29T16:41:13;2.10;;;1.62;;
1825;SDS011;912;48.130;11.348;2022-07-29T16:43:55;4.03;;;1.83;;
1825;SDS011;912;48.130;11.348;2022-07-29T16:46:37;4.10;;;2.10;;
1825;SDS011;912;48.130;11.348;2022-07-29T16:49:19;4.10;;;1.52;;
1825;SDS011;912;48.130;11.348;2022-07-29T16:52:04;1.80;;;1.50;;
1825;SDS011;912;48.130;11.348;2022-07-29T16:54:45;2.33;;;1.55;;
1825;SDS011;912;48.130;11.348;2022-07-29T16:57:32;1.40;;;1.30;;
1825;SDS011;912;48.130;11.348;2022-07-29T17:00:14;1.35;;;0.90;;
1825;SDS011;912;48.130;11.348;2022-07-29T17:02:56;1.23;;;1.12;;
1825;SDS011;912;48.130;11.348;2022-07-29T17:05:39;1.10;;;1.00;;
1825;SDS011;912;48.130;11.348;2022-07-29T17:08:24;1.48;;;1.10;;
1825;SDS011;912;48.130;11.348;2022-07-29T17:11:06;2.27;;;1.10;;
1825;SDS011;912;48.130;11.348;2022-07-29T17:13:47;1.35;;;1.00;;
1825;SDS011;912;48.130;11.348;2022-07-29T17:16:32;1.00;;;0.77;;
1825;SDS011;912;48.130;11.348;2022-07-29T17:19:14;1.30;;;0.93;;
1825;SDS011;912;48.130;11.348;2022-07-29T17:21:56;1.10;;;1.00;;
1825;SDS011;912;48.130;11.348;2022-07-29T17:24:37;1.40;;;1.00;;
1825;SDS011;912;48.130;11.348;2022-07-29T17:27:43;0.95;;;0.62;;
1825;SDS011;912;48.130;11.348;2022-07-29T17:30:25;1.35;;;0.90;;
1825;SDS011;912;48.130;11.348;2022-07-29T17:35:49;1.10;;;0.60;;
1825;SDS011;912;48.130;11.348;2022-07-29T17:38:37;1.50;;;0.80;;
1825;SDS011;912;48.130;11.348;2022-07-29T17:41:19;0.50;;;0.40;;
1825;SDS011;912;48.130;11.348;2022-07-29T17:44:00;0.73;;;0.73;;
1825;SDS011;912;48.130;11.348;2022-07-29T17:46:42;1.10;;;0.60;;
1825;SDS011;912;48.130;11.348;2022-07-29T17:49:24;0.93;;;0.60;;
1825;SDS011;912;48.130;11.348;2022-07-29T17:52:06;1.90;;;1.00;;
1825;SDS011;912;48.130;11.348;2022-07-29T17:54:48;1.70;;;0.65;;
1825;SDS011;912;48.130;11.348;2022-07-29T17:57:29;0.90;;;0.50;;
1825;SDS011;912;48.130;11.348;2022-07-29T18:00:11;0.40;;;0.37;;
1825;SDS011;912;48.130;11.348;2022-07-29T18:03:31;0.90;;;0.60;;
1825;SDS011;912;48.130;11.348;2022-07-29T18:06:12;0.73;;;0.43;;
1825;SDS011;912;48.130;11.348;2022-07-29T18:08:54;0.45;;;0.30;;
1825;SDS011;912;48.130;11.348;2022-07-29T18:11:36;0.70;;;0.45;;
1825;SDS011;912;48.130;11.348;2022-07-29T18:14:17;0.80;;;0.50;;
1825;SDS011;912;48.130;11.348;2022-07-29T18:16:59;1.10;;;0.30;;
1825;SDS011;912;48.130;11.348;2022-07-29T18:19:41;0.60;;;0.60;;
1825;SDS011;912;48.130;11.348;2022-07-29T18:22:26;0.60;;;0.40;;
1825;SDS011;912;48.130;11.348;2022-07-29T18:25:08;0.55;;;0.22;;
1825;SDS011;912;48.130;11.348;2022-07-29T18:30:27;0.60;;;0.50;;
1825;SDS011;912;48.130;11.348;2022-07-29T18:35:50;0.57;;;0.50;;
1825;SDS011;912;48.130;11.348;2022-07-29T18:38:31;0.40;;;0.30;;
1825;SDS011;912;48.130;11.348;2022-07-29T18:41:16;0.60;;;0.30;;
1825;SDS011;912;48.130;11.348;2022-07-29T18:43:58;0.57;;;0.30;;
1825;SDS011;912;48.130;11.348;2022-07-29T18:46:42;0.40;;;0.30;;
1825;SDS011;912;48.130;11.348;2022-07-29T18:49:24;1.10;;;0.60;;
1825;SDS011;912;48.130;11.348;2022-07-29T18:52:06;0.47;;;0.37;;
1825;SDS011;912;48.130;11.348;2022-07-29T18:54:48;0.40;;;0.30;;
1825;SDS011;912;48.130;11.348;2022-07-29T18:57:33;0.40;;;0.25;;
1825;SDS011;912;48.130;11.348;2022-07-29T19:00:14;0.50;;;0.30;;